sensor_id;sensor_type;location;lat;lon;timestamp;P1;durP1;ratioP1;P2;durP2;ratioP2
10120;SDS011;5100;45.176;5.714;2022-07-10T00:00:31;3.20;;;2.10;;
10120;SDS011;5100;45.176;5.714;2022-07-10T00:02:57;2.87;;;2.10;;
10120;SDS011;5100;45.176;5.714;2022-07-10T00:05:24;3.33;;;2.30;;
10120;SDS011;5100;45.176;5.714;2022-07-10T00:07:51;4.65;;;2.17;;
10120;SDS011;5100;45.176;5.714;2022-07-10T00:10:18;2.55;;;2.00;;
10120;SDS011;5100;45.176;5.714;2022-07-10T00:12:45;4.43;;;2.20;;
10120;SDS011;5100;45.176;5.714;2022-07-10T00:15:12;5.32;;;2.20;;
10120;SDS011;5100;45.176;5.714;2022-07-10T00:17:40;3.35;;;2.20;;
10120;SDS011;5100;45.176;5.714;2022-07-10T00:20:06;2.47;;;2.10;;
10120;SDS011;5100;45.176;5.714;2022-07-10T00:22:33;4.37;;;2.60;;
10120;SDS011;5100;45.176;5.714;2022-07-10T00:25:07;4.20;;;2.22;;
10120;SDS011;5100;45.176;5.714;2022-07-10T00:27:35;1.87;;;1.77;;
10120;SDS011;5100;45.176;5.714;2022-07-10T00:30:01;2.65;;;2.33;;
10120;SDS011;5100;45.176;5.714;2022-07-10T00:32:28;2.83;;;1.90;;
10120;SDS011;5100;45.176;5.714;2022-07-10T00:34:54;2.28;;;2.08;;
10120;SDS011;5100;45.176;5.714;2022-07-10T00:37:20;4.12;;;2.05;;
10120;SDS011;5100;45.176;5.714;2022-07-10T00:39:47;3.50;;;2.37;;
10120;SDS011;5100;45.176;5.714;2022-07-10T00:42:14;2.28;;;2.08;;
10120;SDS011;5100;45.176;5.714;2022-07-10T00:44:41;6.60;;;2.15;;
10120;SDS011;5100;45.176;5.714;2022-07-10T00:47:09;3.15;;;2.00;;
10120;SDS011;5100;45.176;5.714;2022-07-10T00:49:36;3.45;;;2.20;;
10120;SDS011;5100;45.176;5.714;2022-07-10T00:52:06;3.28;;;2.20;;
10120;SDS011;5100;45.176;5.714;2022-07-10T00:54:36;2.37;;;2.17;;
10120;SDS011;5100;45.176;5.714;2022-07-10T00:57:05;2.80;;;2.20;;
10120;SDS011;5100;45.176;5.714;2022-07-10T00:59:33;7.75;;;2.30;;
10120;SDS011;5100;45.176;5.714;2022-07-10T01:02:00;4.75;;;2.30;;
10120;SDS011;5100;45.176;5.714;2022-07-10T01:04:27;1.92;;;1.73;;
10120;SDS011;5100;45.176;5.714;2022-07-10T01:06:53;3.95;;;2.25;;
10120;SDS011;5100;45.176;5.714;2022-07-10T01:09:19;2.60;;;2.40;;
10120;SDS011;5100;45.176;5.714;2022-07-10T01:11:45;3.72;;;2.20;;
10120;SDS011;5100;45.176;5.714;2022-07-10T01:14:12;3.80;;;2.10;;
10120;SDS011;5100;45.176;5.714;2022-07-10T01:16:40;5.57;;;2.37;;
10120;SDS011;5100;45.176;5.714;2022-07-10T01:19:06;2.20;;;2.00;;
10120;SDS011;5100;45.176;5.714;2022-07-10T01:21:33;3.72;;;2.40;;
10120;SDS011;5100;45.176;5.714;2022-07-10T01:24:04;3.33;;;2.40;;
10120;SDS011;5100;45.176;5.714;2022-07-10T01:26:32;3.53;;;2.33;;
10120;SDS011;5100;45.176;5.714;2022-07-10T01:28:58;2.85;;;2.20;;
10120;SDS011;5100;45.176;5.714;2022-07-10T01:31:28;2.12;;;1.90;;
10120;SDS011;5100;45.176;5.714;2022-07-10T01:33:54;3.33;;;2.60;;
10120;SDS011;5100;45.176;5.714;2022-07-10T01:36:21;4.43;;;2.37;;
10120;SDS011;5100;45.176;5.714;2022-07-10T01:38:50;3.70;;;1.98;;
10120;SDS011;5100;45.176;5.714;2022-07-10T01:41:17;3.10;;;2.20;;
10120;SDS011;5100;45.176;5.714;2022-07-10T01:43:43;5.47;;;2.33;;
10120;SDS011;5100;45.176;5.714;2022-07-10T01:46:11;3.55;;;2.20;;
10120;SDS011;5100;45.176;5.714;2022-07-10T01:48:38;2.55;;;2.12;;
10120;SDS011;5100;45.176;5.714;2022-07-10T01:51:05;3.95;;;2.30;;
10120;SDS011;5100;45.176;5.714;2022-07-10T01:53:31;3.83;;;2.28;;
10120;SDS011;5100;45.176;5.714;2022-07-10T01:55:58;3.92;;;2.42;;
10120;SDS011;5100;45.176;5.714;2022-07-10T01:58:26;3.60;;;2.20;;
10120;SDS011;5100;45.176;5.714;2022-07-10T02:00:52;4.60;;;2.25;;
10120;SDS011;5100;45.176;5.714;2022-07-10T02:03:19;2.78;;;2.40;;
10120;SDS011;5100;45.176;5.714;2022-07-10T02:06:03;3.47;;;2.50;;
10120;SDS011;5100;45.176;5.714;2022-07-10T02:08:30;6.90;;;2.70;;
10120;SDS011;5100;45.176;5.714;2022-07-10T02:10:56;6.90;;;2.65;;
10120;SDS011;5100;45.176;5.714;2022-07-10T02:13:22;3.65;;;2.40;;
10120;SDS011;5100;45.176;5.714;2022-07-10T02:15:50;5.95;;;2.25;;
10120;SDS011;5100;45.176;5.714;2022-07-10T02:18:16;4.43;;;2.50;;
10120;SDS011;5100;45.176;5.714;2022-07-10T02:20:42;4.68;;;2.47;;
10120;SDS011;5100;45.176;5.714;2022-07-10T02:23:08;3.83;;;1.83;;
10120;SDS011;5100;45.176;5.714;2022-07-10T02:25:34;2.50;;;2.08;;
10120;SDS011;5100;45.176;5.714;2022-07-10T02:28:00;4.47;;;2.30;;
10120;SDS011;5100;45.176;5.714;2022-07-10T02:30:26;4.00;;;2.17;;
10120;SDS011;5100;45.176;5.714;2022-07-10T02:32:52;3.22;;;2.08;;
10120;SDS011;5100;45.176;5.714;2022-07-10T02:35:18;4.78;;;2.67;;
10120;SDS011;5100;45.176;5.714;2022-07-10T02:37:44;2.62;;;2.17;;
10120;SDS011;5100;45.176;5.714;2022-07-10T02:40:10;5.43;;;2.35;;
10120;SDS011;5100;45.176;5.714;2022-07-10T02:42:36;3.87;;;2.25;;
10120;SDS011;5100;45.176;5.714;2022-07-10T02:45:03;3.15;;;2.20;;
10120;SDS011;5100;45.176;5.714;2022-07-10T02:47:29;5.80;;;2.30;;
10120;SDS011;5100;45.176;5.714;2022-07-10T02:49:55;5.57;;;2.30;;
10120;SDS011;5100;45.176;5.714;2022-07-10T02:52:22;4.43;;;2.40;;
10120;SDS011;5100;45.176;5.714;2022-07-10T02:54:47;2.17;;;1.98;;
10120;SDS011;5100;45.176;5.714;2022-07-10T02:57:13;3.55;;;2.28;;
10120;SDS011;5100;45.176;5.714;2022-07-10T02:59:40;5.10;;;2.33;;
10120;SDS011;5100;45.176;5.714;2022-07-10T03:02:05;4.45;;;2.12;;
10120;SDS011;5100;45.176;5.714;2022-07-10T03:04:32;4.07;;;2.42;;
10120;SDS011;5100;45.176;5.714;2022-07-10T03:06:59;4.78;;;2.53;;
10120;SDS011;5100;45.176;5.714;2022-07-10T03:09:25;4.35;;;2.28;;
10120;SDS011;5100;45.176;5.714;2022-07-10T03:11:51;4.15;;;2.45;;
10120;SDS011;5100;45.176;5.714;2022-07-10T03:14:17;3.78;;;2.37;;
10120;SDS011;5100;45.176;5.714;2022-07-10T03:16:43;3.12;;;2.47;;
10120;SDS011;5100;45.176;5.714;2022-07-10T03:19:10;4.43;;;2.72;;
10120;SDS011;5100;45.176;5.714;2022-07-10T03:21:36;4.05;;;2.40;;
10120;SDS011;5100;45.176;5.714;2022-07-10T03:24:02;3.50;;;2.40;;
10120;SDS011;5100;45.176;5.714;2022-07-10T03:26:28;4.68;;;2.40;;
10120;SDS011;5100;45.176;5.714;2022-07-10T03:28:58;3.40;;;2.28;;
10120;SDS011;5100;45.176;5.714;2022-07-10T03:31:24;3.58;;;2.28;;
10120;SDS011;5100;45.176;5.714;2022-07-10T03:33:49;2.80;;;2.58;;
10120;SDS011;5100;45.176;5.714;2022-07-10T03:36:18;4.93;;;2.55;;
10120;SDS011;5100;45.176;5.714;2022-07-10T03:38:45;2.50;;;2.30;;
10120;SDS011;5100;45.176;5.714;2022-07-10T03:41:12;2.72;;;2.30;;
10120;SDS011;5100;45.176;5.714;2022-07-10T03:43:39;3.10;;;2.20;;
10120;SDS011;5100;45.176;5.714;2022-07-10T03:46:05;2.42;;;2.10;;
10120;SDS011;5100;45.176;5.714;2022-07-10T03:48:31;3.33;;;2.53;;
10120;SDS011;5100;45.176;5.714;2022-07-10T03:50:58;3.20;;;2.10;;
10120;SDS011;5100;45.176;5.714;2022-07-10T03:53:24;2.20;;;2.00;;
10120;SDS011;5100;45.176;5.714;2022-07-10T03:55:50;4.18;;;2.30;;
10120;SDS011;5100;45.176;5.714;2022-07-10T03:58:16;2.50;;;2.30;;
10120;SDS011;5100;45.176;5.714;2022-07-10T04:00:42;2.92;;;2.15;;
10120;SDS011;5100;45.176;5.714;2022-07-10T04:03:09;3.67;;;2.20;;
10120;SDS011;5100;45.176;5.714;2022-07-10T04:05:35;5.43;;;2.50;;
10120;SDS011;5100;45.176;5.714;2022-07-10T04:08:01;2.65;;;2.10;;
10120;SDS011;5100;45.176;5.714;2022-07-10T04:10:29;3.90;;;2.30;;
10120;SDS011;5100;45.176;5.714;2022-07-10T04:12:56;3.37;;;2.45;;
10120;SDS011;5100;45.176;5.714;2022-07-10T04:15:23;3.08;;;2.20;;
10120;SDS011;5100;45.176;5.714;2022-07-10T04:17:50;3.12;;;1.95;;
10120;SDS011;5100;45.176;5.714;2022-07-10T04:20:17;2.37;;;2.15;;
10120;SDS011;5100;45.176;5.714;2022-07-10T04:22:43;2.50;;;2.30;;
10120;SDS011;5100;45.176;5.714;2022-07-10T04:25:10;2.33;;;2.20;;
10120;SDS011;5100;45.176;5.714;2022-07-10T04:27:37;4.00;;;2.37;;
10120;SDS011;5100;45.176;5.714;2022-07-10T04:30:03;2.55;;;2.35;;
10120;SDS011;5100;45.176;5.714;2022-07-10T04:32:30;3.78;;;2.50;;
10120;SDS011;5100;45.176;5.714;2022-07-10T04:34:57;2.50;;;2.30;;
10120;SDS011;5100;45.176;5.714;2022-07-10T04:37:23;3.97;;;2.72;;
10120;SDS011;5100;45.176;5.714;2022-07-10T04:39:49;2.37;;;2.17;;
10120;SDS011;5100;45.176;5.714;2022-07-10T04:42:15;2.40;;;2.20;;
10120;SDS011;5100;45.176;5.714;2022-07-10T04:44:41;3.60;;;2.17;;
10120;SDS011;5100;45.176;5.714;2022-07-10T04:47:08;4.07;;;2.30;;
10120;SDS011;5100;45.176;5.714;2022-07-10T04:49:34;3.05;;;2.35;;
10120;SDS011;5100;45.176;5.714;2022-07-10T04:52:00;3.75;;;2.40;;
10120;SDS011;5100;45.176;5.714;2022-07-10T04:54:26;3.05;;;2.20;;
10120;SDS011;5100;45.176;5.714;2022-07-10T04:56:52;2.30;;;2.10;;
10120;SDS011;5100;45.176;5.714;2022-07-10T04:59:18;2.10;;;2.00;;
10120;SDS011;5100;45.176;5.714;2022-07-10T05:01:44;3.10;;;2.53;;
10120;SDS011;5100;45.176;5.714;2022-07-10T05:04:10;2.47;;;2.00;;
10120;SDS011;5100;45.176;5.714;2022-07-10T05:06:36;2.30;;;2.10;;
10120;SDS011;5100;45.176;5.714;2022-07-10T05:09:03;2.20;;;2.00;;
10120;SDS011;5100;45.176;5.714;2022-07-10T05:11:29;4.15;;;2.22;;
10120;SDS011;5100;45.176;5.714;2022-07-10T05:13:56;2.03;;;1.92;;
10120;SDS011;5100;45.176;5.714;2022-07-10T05:16:23;6.90;;;2.20;;
10120;SDS011;5100;45.176;5.714;2022-07-10T05:18:49;3.85;;;2.70;;
10120;SDS011;5100;45.176;5.714;2022-07-10T05:21:15;3.33;;;2.20;;
10120;SDS011;5100;45.176;5.714;2022-07-10T05:23:42;3.47;;;2.50;;
10120;SDS011;5100;45.176;5.714;2022-07-10T05:26:08;4.72;;;2.40;;
10120;SDS011;5100;45.176;5.714;2022-07-10T05:28:33;2.80;;;2.60;;
10120;SDS011;5100;45.176;5.714;2022-07-10T05:31:00;3.35;;;2.00;;
10120;SDS011;5100;45.176;5.714;2022-07-10T05:33:26;4.20;;;2.50;;
10120;SDS011;5100;45.176;5.714;2022-07-10T05:35:53;2.97;;;2.30;;
10120;SDS011;5100;45.176;5.714;2022-07-10T05:38:20;2.47;;;2.28;;
10120;SDS011;5100;45.176;5.714;2022-07-10T05:40:46;2.53;;;2.22;;
10120;SDS011;5100;45.176;5.714;2022-07-10T05:43:12;3.53;;;2.35;;
10120;SDS011;5100;45.176;5.714;2022-07-10T05:45:38;3.53;;;2.47;;
10120;SDS011;5100;45.176;5.714;2022-07-10T05:48:04;2.50;;;2.30;;
10120;SDS011;5100;45.176;5.714;2022-07-10T05:50:30;2.90;;;2.60;;
10120;SDS011;5100;45.176;5.714;2022-07-10T05:52:57;3.60;;;2.50;;
10120;SDS011;5100;45.176;5.714;2022-07-10T05:55:23;4.05;;;2.30;;
10120;SDS011;5100;45.176;5.714;2022-07-10T05:57:49;2.78;;;2.40;;
10120;SDS011;5100;45.176;5.714;2022-07-10T06:00:16;2.70;;;2.30;;
10120;SDS011;5100;45.176;5.714;2022-07-10T06:02:42;3.60;;;2.25;;
10120;SDS011;5100;45.176;5.714;2022-07-10T06:05:08;3.65;;;2.50;;
10120;SDS011;5100;45.176;5.714;2022-07-10T06:07:34;6.03;;;2.30;;
10120;SDS011;5100;45.176;5.714;2022-07-10T06:10:02;2.70;;;2.35;;
10120;SDS011;5100;45.176;5.714;2022-07-10T06:12:29;2.50;;;2.30;;
10120;SDS011;5100;45.176;5.714;2022-07-10T06:14:55;3.28;;;2.20;;
10120;SDS011;5100;45.176;5.714;2022-07-10T06:17:22;2.83;;;2.20;;
10120;SDS011;5100;45.176;5.714;2022-07-10T06:19:48;3.17;;;2.40;;
10120;SDS011;5100;45.176;5.714;2022-07-10T06:22:14;2.30;;;2.10;;
10120;SDS011;5100;45.176;5.714;2022-07-10T06:24:59;2.97;;;2.30;;
10120;SDS011;5100;45.176;5.714;2022-07-10T06:27:26;3.70;;;2.25;;
10120;SDS011;5100;45.176;5.714;2022-07-10T06:29:53;3.92;;;2.47;;
10120;SDS011;5100;45.176;5.714;2022-07-10T06:32:19;3.05;;;2.22;;
10120;SDS011;5100;45.176;5.714;2022-07-10T06:34:45;2.75;;;2.25;;
10120;SDS011;5100;45.176;5.714;2022-07-10T06:37:11;4.35;;;2.50;;
10120;SDS011;5100;45.176;5.714;2022-07-10T06:39:37;4.18;;;2.40;;
10120;SDS011;5100;45.176;5.714;2022-07-10T06:42:04;8.77;;;2.37;;
10120;SDS011;5100;45.176;5.714;2022-07-10T06:44:37;3.55;;;2.33;;
10120;SDS011;5100;45.176;5.714;2022-07-10T06:47:03;4.97;;;2.40;;
10120;SDS011;5100;45.176;5.714;2022-07-10T06:49:48;2.95;;;2.20;;
10120;SDS011;5100;45.176;5.714;2022-07-10T06:52:15;5.78;;;2.95;;
10120;SDS011;5100;45.176;5.714;2022-07-10T06:54:41;2.67;;;2.47;;
10120;SDS011;5100;45.176;5.714;2022-07-10T06:57:08;5.80;;;2.62;;
10120;SDS011;5100;45.176;5.714;2022-07-10T06:59:35;4.12;;;2.35;;
10120;SDS011;5100;45.176;5.714;2022-07-10T07:02:01;4.53;;;2.45;;
10120;SDS011;5100;45.176;5.714;2022-07-10T07:04:27;3.55;;;2.22;;
10120;SDS011;5100;45.176;5.714;2022-07-10T07:06:53;4.82;;;2.10;;
10120;SDS011;5100;45.176;5.714;2022-07-10T07:09:19;5.47;;;2.40;;
10120;SDS011;5100;45.176;5.714;2022-07-10T07:11:45;4.07;;;2.28;;
10120;SDS011;5100;45.176;5.714;2022-07-10T07:14:11;2.55;;;1.80;;
10120;SDS011;5100;45.176;5.714;2022-07-10T07:16:37;3.10;;;2.17;;
10120;SDS011;5100;45.176;5.714;2022-07-10T07:19:07;3.65;;;2.30;;
10120;SDS011;5100;45.176;5.714;2022-07-10T07:21:37;2.42;;;2.22;;
10120;SDS011;5100;45.176;5.714;2022-07-10T07:24:22;4.28;;;2.40;;
10120;SDS011;5100;45.176;5.714;2022-07-10T07:26:48;2.72;;;2.17;;
10120;SDS011;5100;45.176;5.714;2022-07-10T07:29:16;4.00;;;2.20;;
10120;SDS011;5100;45.176;5.714;2022-07-10T07:31:42;3.50;;;2.40;;
10120;SDS011;5100;45.176;5.714;2022-07-10T07:34:09;2.78;;;2.20;;
10120;SDS011;5100;45.176;5.714;2022-07-10T07:36:36;3.72;;;2.17;;
10120;SDS011;5100;45.176;5.714;2022-07-10T07:39:02;4.37;;;2.28;;
10120;SDS011;5100;45.176;5.714;2022-07-10T07:41:29;3.78;;;2.22;;
10120;SDS011;5100;45.176;5.714;2022-07-10T07:43:55;5.55;;;2.03;;
10120;SDS011;5100;45.176;5.714;2022-07-10T07:46:21;3.15;;;2.35;;
10120;SDS011;5100;45.176;5.714;2022-07-10T07:48:47;2.72;;;1.77;;
10120;SDS011;5100;45.176;5.714;2022-07-10T07:51:13;2.60;;;1.77;;
10120;SDS011;5100;45.176;5.714;2022-07-10T07:53:40;4.37;;;1.90;;
10120;SDS011;5100;45.176;5.714;2022-07-10T07:56:06;2.53;;;2.20;;
10120;SDS011;5100;45.176;5.714;2022-07-10T07:58:32;2.53;;;2.12;;
10120;SDS011;5100;45.176;5.714;2022-07-10T08:00:58;2.62;;;2.10;;
10120;SDS011;5100;45.176;5.714;2022-07-10T08:03:24;5.65;;;2.50;;
10120;SDS011;5100;45.176;5.714;2022-07-10T08:05:50;2.75;;;2.00;;
10120;SDS011;5100;45.176;5.714;2022-07-10T08:08:16;3.22;;;2.10;;
10120;SDS011;5100;45.176;5.714;2022-07-10T08:10:42;3.92;;;2.25;;
10120;SDS011;5100;45.176;5.714;2022-07-10T08:13:08;2.42;;;1.90;;
10120;SDS011;5100;45.176;5.714;2022-07-10T08:15:34;4.03;;;2.42;;
10120;SDS011;5100;45.176;5.714;2022-07-10T08:18:01;2.12;;;1.87;;
10120;SDS011;5100;45.176;5.714;2022-07-10T08:20:29;2.10;;;2.00;;
10120;SDS011;5100;45.176;5.714;2022-07-10T08:22:56;4.00;;;2.10;;
10120;SDS011;5100;45.176;5.714;2022-07-10T08:25:23;2.53;;;1.87;;
10120;SDS011;5100;45.176;5.714;2022-07-10T08:27:49;2.87;;;2.12;;
10120;SDS011;5100;45.176;5.714;2022-07-10T08:30:16;2.22;;;1.62;;
10120;SDS011;5100;45.176;5.714;2022-07-10T08:32:43;1.95;;;1.80;;
10120;SDS011;5100;45.176;5.714;2022-07-10T08:35:09;2.75;;;1.95;;
10120;SDS011;5100;45.176;5.714;2022-07-10T08:37:39;2.03;;;1.83;;
10120;SDS011;5100;45.176;5.714;2022-07-10T08:40:08;4.37;;;2.00;;
10120;SDS011;5100;45.176;5.714;2022-07-10T08:42:35;2.05;;;1.80;;
10120;SDS011;5100;45.176;5.714;2022-07-10T08:45:01;2.25;;;1.60;;
10120;SDS011;5100;45.176;5.714;2022-07-10T08:47:27;2.72;;;1.85;;
10120;SDS011;5100;45.176;5.714;2022-07-10T08:49:56;2.45;;;2.25;;
10120;SDS011;5100;45.176;5.714;2022-07-10T08:52:26;2.37;;;1.87;;
10120;SDS011;5100;45.176;5.714;2022-07-10T08:54:53;2.95;;;2.10;;
10120;SDS011;5100;45.176;5.714;2022-07-10T08:57:20;1.87;;;1.65;;
10120;SDS011;5100;45.176;5.714;2022-07-10T08:59:49;1.98;;;1.73;;
10120;SDS011;5100;45.176;5.714;2022-07-10T09:02:15;3.58;;;1.73;;
10120;SDS011;5100;45.176;5.714;2022-07-10T09:04:41;1.92;;;1.83;;
10120;SDS011;5100;45.176;5.714;2022-07-10T09:07:07;3.03;;;1.90;;
10120;SDS011;5100;45.176;5.714;2022-07-10T09:09:50;2.25;;;2.05;;
10120;SDS011;5100;45.176;5.714;2022-07-10T09:12:20;1.87;;;1.60;;
10120;SDS011;5100;45.176;5.714;2022-07-10T09:14:47;1.98;;;1.70;;
10120;SDS011;5100;45.176;5.714;2022-07-10T09:17:14;3.12;;;2.28;;
10120;SDS011;5100;45.176;5.714;2022-07-10T09:19:41;5.03;;;2.00;;
10120;SDS011;5100;45.176;5.714;2022-07-10T09:22:09;6.30;;;1.80;;
10120;SDS011;5100;45.176;5.714;2022-07-10T09:24:43;2.12;;;1.92;;
10120;SDS011;5100;45.176;5.714;2022-07-10T09:27:12;2.20;;;1.80;;
10120;SDS011;5100;45.176;5.714;2022-07-10T09:29:50;1.92;;;1.73;;
10120;SDS011;5100;45.176;5.714;2022-07-10T09:32:21;1.70;;;1.58;;
10120;SDS011;5100;45.176;5.714;2022-07-10T09:34:48;2.17;;;1.73;;
10120;SDS011;5100;45.176;5.714;2022-07-10T09:37:19;3.75;;;2.03;;
10120;SDS011;5100;45.176;5.714;2022-07-10T09:40:05;3.15;;;1.85;;
10120;SDS011;5100;45.176;5.714;2022-07-10T09:42:33;2.75;;;1.65;;
10120;SDS011;5100;45.176;5.714;2022-07-10T09:47:38;2.40;;;1.90;;
10120;SDS011;5100;45.176;5.714;2022-07-10T09:50:25;2.17;;;1.65;;
10120;SDS011;5100;45.176;5.714;2022-07-10T09:52:56;3.33;;;1.80;;
10120;SDS011;5100;45.176;5.714;2022-07-10T09:55:35;2.58;;;1.98;;
10120;SDS011;5100;45.176;5.714;2022-07-10T09:58:11;1.90;;;1.80;;
10120;SDS011;5100;45.176;5.714;2022-07-10T10:00:39;1.77;;;1.40;;
10120;SDS011;5100;45.176;5.714;2022-07-10T10:03:07;2.65;;;1.80;;
10120;SDS011;5100;45.176;5.714;2022-07-10T10:05:38;2.28;;;1.80;;
10120;SDS011;5100;45.176;5.714;2022-07-10T10:08:10;2.17;;;1.80;;
10120;SDS011;5100;45.176;5.714;2022-07-10T10:10:37;1.92;;;1.75;;
10120;SDS011;5100;45.176;5.714;2022-07-10T10:13:10;2.55;;;1.80;;
10120;SDS011;5100;45.176;5.714;2022-07-10T10:15:37;1.98;;;1.65;;
10120;SDS011;5100;45.176;5.714;2022-07-10T10:18:04;2.75;;;2.00;;
10120;SDS011;5100;45.176;5.714;2022-07-10T10:20:31;2.00;;;1.80;;
10120;SDS011;5100;45.176;5.714;2022-07-10T10:23:05;2.33;;;1.80;;
10120;SDS011;5100;45.176;5.714;2022-07-10T10:25:34;2.92;;;2.00;;
10120;SDS011;5100;45.176;5.714;2022-07-10T10:28:02;1.98;;;1.77;;
10120;SDS011;5100;45.176;5.714;2022-07-10T10:30:37;1.80;;;1.60;;
10120;SDS011;5100;45.176;5.714;2022-07-10T10:36:09;2.28;;;1.90;;
10120;SDS011;5100;45.176;5.714;2022-07-10T10:46:35;2.28;;;1.80;;
10120;SDS011;5100;45.176;5.714;2022-07-10T10:49:05;4.70;;;1.90;;
10120;SDS011;5100;45.176;5.714;2022-07-10T10:54:24;2.60;;;2.03;;
10120;SDS011;5100;45.176;5.714;2022-07-10T10:57:14;2.78;;;1.95;;
10120;SDS011;5100;45.176;5.714;2022-07-10T11:10:27;1.62;;;1.52;;
10120;SDS011;5100;45.176;5.714;2022-07-10T11:13:07;6.00;;;1.80;;
10120;SDS011;5100;45.176;5.714;2022-07-10T11:15:44;2.92;;;2.10;;
10120;SDS011;5100;45.176;5.714;2022-07-10T11:18:13;2.28;;;1.90;;
10120;SDS011;5100;45.176;5.714;2022-07-10T11:20:47;3.78;;;1.90;;
10120;SDS011;5100;45.176;5.714;2022-07-10T11:26:04;5.62;;;2.15;;
10120;SDS011;5100;45.176;5.714;2022-07-10T11:31:17;2.08;;;1.80;;
10120;SDS011;5100;45.176;5.714;2022-07-10T11:33:47;2.45;;;2.00;;
10120;SDS011;5100;45.176;5.714;2022-07-10T11:36:18;2.90;;;1.70;;
10120;SDS011;5100;45.176;5.714;2022-07-10T11:38:45;3.75;;;1.95;;
10120;SDS011;5100;45.176;5.714;2022-07-10T11:41:12;2.33;;;2.03;;
10120;SDS011;5100;45.176;5.714;2022-07-10T11:43:45;2.10;;;1.67;;
10120;SDS011;5100;45.176;5.714;2022-07-10T11:46:21;4.35;;;2.40;;
10120;SDS011;5100;45.176;5.714;2022-07-10T11:49:02;2.25;;;2.00;;
10120;SDS011;5100;45.176;5.714;2022-07-10T11:51:31;2.47;;;1.70;;
10120;SDS011;5100;45.176;5.714;2022-07-10T11:54:06;3.10;;;2.08;;
10120;SDS011;5100;45.176;5.714;2022-07-10T11:56:35;2.95;;;1.92;;
10120;SDS011;5100;45.176;5.714;2022-07-10T11:59:09;3.60;;;1.60;;
10120;SDS011;5100;45.176;5.714;2022-07-10T12:01:43;2.03;;;1.60;;
10120;SDS011;5100;45.176;5.714;2022-07-10T12:04:13;1.90;;;1.70;;
10120;SDS011;5100;45.176;5.714;2022-07-10T12:06:41;1.70;;;1.60;;
10120;SDS011;5100;45.176;5.714;2022-07-10T12:09:10;3.10;;;1.85;;
10120;SDS011;5100;45.176;5.714;2022-07-10T12:11:41;2.58;;;1.85;;
10120;SDS011;5100;45.176;5.714;2022-07-10T12:16:41;4.35;;;1.90;;
10120;SDS011;5100;45.176;5.714;2022-07-10T12:19:10;1.75;;;1.62;;
10120;SDS011;5100;45.176;5.714;2022-07-10T12:21:41;3.10;;;2.15;;
10120;SDS011;5100;45.176;5.714;2022-07-10T12:24:09;3.03;;;1.75;;
10120;SDS011;5100;45.176;5.714;2022-07-10T12:26:37;2.90;;;1.77;;
10120;SDS011;5100;45.176;5.714;2022-07-10T12:29:11;2.20;;;1.60;;
10120;SDS011;5100;45.176;5.714;2022-07-10T12:31:57;2.37;;;1.58;;
10120;SDS011;5100;45.176;5.714;2022-07-10T12:34:33;2.65;;;2.15;;
10120;SDS011;5100;45.176;5.714;2022-07-10T12:37:12;2.37;;;1.70;;
10120;SDS011;5100;45.176;5.714;2022-07-10T12:39:45;6.65;;;1.87;;
10120;SDS011;5100;45.176;5.714;2022-07-10T12:42:13;2.05;;;1.85;;
10120;SDS011;5100;45.176;5.714;2022-07-10T12:44:49;2.37;;;1.80;;
10120;SDS011;5100;45.176;5.714;2022-07-10T12:47:18;2.58;;;1.50;;
10120;SDS011;5100;45.176;5.714;2022-07-10T12:52:32;3.92;;;2.10;;
10120;SDS011;5100;45.176;5.714;2022-07-10T12:55:18;2.03;;;1.77;;
10120;SDS011;5100;45.176;5.714;2022-07-10T12:57:55;2.80;;;1.70;;
10120;SDS011;5100;45.176;5.714;2022-07-10T13:00:26;2.45;;;1.60;;
10120;SDS011;5100;45.176;5.714;2022-07-10T13:03:03;5.18;;;1.77;;
10120;SDS011;5100;45.176;5.714;2022-07-10T13:05:34;1.70;;;1.60;;
10120;SDS011;5100;45.176;5.714;2022-07-10T13:08:06;3.87;;;1.73;;
10120;SDS011;5100;45.176;5.714;2022-07-10T13:10:40;1.62;;;1.42;;
10120;SDS011;5100;45.176;5.714;2022-07-10T13:13:08;2.00;;;1.80;;
10120;SDS011;5100;45.176;5.714;2022-07-10T13:15:35;3.33;;;1.83;;
10120;SDS011;5100;45.176;5.714;2022-07-10T13:18:12;1.83;;;1.73;;
10120;SDS011;5100;45.176;5.714;2022-07-10T13:20:49;3.10;;;2.03;;
10120;SDS011;5100;45.176;5.714;2022-07-10T13:23:24;2.45;;;2.00;;
10120;SDS011;5100;45.176;5.714;2022-07-10T13:25:54;2.20;;;1.70;;
10120;SDS011;5100;45.176;5.714;2022-07-10T13:28:21;5.55;;;1.60;;
10120;SDS011;5100;45.176;5.714;2022-07-10T13:30:48;1.87;;;1.77;;
10120;SDS011;5100;45.176;5.714;2022-07-10T13:33:14;1.60;;;1.50;;
10120;SDS011;5100;45.176;5.714;2022-07-10T13:35:40;2.72;;;1.73;;
10120;SDS011;5100;45.176;5.714;2022-07-10T13:38:07;3.08;;;1.77;;
10120;SDS011;5100;45.176;5.714;2022-07-10T13:40:36;1.65;;;1.55;;
10120;SDS011;5100;45.176;5.714;2022-07-10T13:43:03;2.20;;;1.65;;
10120;SDS011;5100;45.176;5.714;2022-07-10T13:45:29;2.53;;;1.95;;
10120;SDS011;5100;45.176;5.714;2022-07-10T13:48:02;3.50;;;1.73;;
10120;SDS011;5100;45.176;5.714;2022-07-10T13:50:29;2.33;;;1.65;;
10120;SDS011;5100;45.176;5.714;2022-07-10T13:52:55;3.00;;;1.80;;
10120;SDS011;5100;45.176;5.714;2022-07-10T13:55:21;3.90;;;1.80;;
10120;SDS011;5100;45.176;5.714;2022-07-10T13:57:47;1.95;;;1.70;;
10120;SDS011;5100;45.176;5.714;2022-07-10T14:00:14;1.87;;;1.60;;
10120;SDS011;5100;45.176;5.714;2022-07-10T14:02:40;1.87;;;1.77;;
10120;SDS011;5100;45.176;5.714;2022-07-10T14:05:06;1.77;;;1.65;;
10120;SDS011;5100;45.176;5.714;2022-07-10T14:07:35;3.97;;;1.70;;
10120;SDS011;5100;45.176;5.714;2022-07-10T14:10:02;3.92;;;2.00;;
10120;SDS011;5100;45.176;5.714;2022-07-10T14:12:28;1.85;;;1.60;;
10120;SDS011;5100;45.176;5.714;2022-07-10T14:14:55;2.10;;;1.60;;
10120;SDS011;5100;45.176;5.714;2022-07-10T14:17:23;2.53;;;1.70;;
10120;SDS011;5100;45.176;5.714;2022-07-10T14:19:49;1.73;;;1.50;;
10120;SDS011;5100;45.176;5.714;2022-07-10T14:22:16;1.92;;;1.83;;
10120;SDS011;5100;45.176;5.714;2022-07-10T14:24:42;2.65;;;1.60;;
10120;SDS011;5100;45.176;5.714;2022-07-10T14:27:08;1.30;;;1.30;;
10120;SDS011;5100;45.176;5.714;2022-07-10T14:29:36;2.35;;;1.58;;
10120;SDS011;5100;45.176;5.714;2022-07-10T14:32:02;2.25;;;1.60;;
10120;SDS011;5100;45.176;5.714;2022-07-10T14:34:29;5.40;;;1.58;;
10120;SDS011;5100;45.176;5.714;2022-07-10T14:36:55;2.22;;;1.67;;
10120;SDS011;5100;45.176;5.714;2022-07-10T14:39:21;2.12;;;2.00;;
10120;SDS011;5100;45.176;5.714;2022-07-10T14:41:47;1.98;;;1.73;;
10120;SDS011;5100;45.176;5.714;2022-07-10T14:44:13;2.40;;;1.60;;
10120;SDS011;5100;45.176;5.714;2022-07-10T14:46:40;3.72;;;1.60;;
10120;SDS011;5100;45.176;5.714;2022-07-10T14:49:08;1.85;;;1.75;;
10120;SDS011;5100;45.176;5.714;2022-07-10T14:51:34;2.28;;;1.80;;
10120;SDS011;5100;45.176;5.714;2022-07-10T14:54:01;2.60;;;1.80;;
10120;SDS011;5100;45.176;5.714;2022-07-10T14:56:27;4.40;;;1.80;;
10120;SDS011;5100;45.176;5.714;2022-07-10T14:58:54;1.75;;;1.65;;
10120;SDS011;5100;45.176;5.714;2022-07-10T15:01:23;2.85;;;1.67;;
10120;SDS011;5100;45.176;5.714;2022-07-10T15:03:49;1.90;;;1.80;;
10120;SDS011;5100;45.176;5.714;2022-07-10T15:06:15;3.97;;;1.83;;
10120;SDS011;5100;45.176;5.714;2022-07-10T15:08:41;2.35;;;1.40;;
10120;SDS011;5100;45.176;5.714;2022-07-10T15:11:07;2.53;;;1.60;;
10120;SDS011;5100;45.176;5.714;2022-07-10T15:13:33;3.42;;;1.52;;
10120;SDS011;5100;45.176;5.714;2022-07-10T15:15:59;1.60;;;1.50;;
10120;SDS011;5100;45.176;5.714;2022-07-10T15:18:26;3.12;;;1.75;;
10120;SDS011;5100;45.176;5.714;2022-07-10T15:20:52;2.65;;;1.70;;
10120;SDS011;5100;45.176;5.714;2022-07-10T15:23:18;2.03;;;1.52;;
10120;SDS011;5100;45.176;5.714;2022-07-10T15:25:44;2.00;;;1.45;;
10120;SDS011;5100;45.176;5.714;2022-07-10T15:30:42;2.67;;;1.62;;
10120;SDS011;5100;45.176;5.714;2022-07-10T15:33:08;1.90;;;1.70;;
10120;SDS011;5100;45.176;5.714;2022-07-10T15:35:34;4.47;;;1.67;;
10120;SDS011;5100;45.176;5.714;2022-07-10T15:38:01;2.00;;;1.90;;
10120;SDS011;5100;45.176;5.714;2022-07-10T15:40:27;2.28;;;1.83;;
10120;SDS011;5100;45.176;5.714;2022-07-10T15:42:57;3.25;;;1.70;;
10120;SDS011;5100;45.176;5.714;2022-07-10T15:45:24;1.80;;;1.52;;